sensor_id;sensor_type;location;lat;lon;timestamp;pressure;altitude;pressure_sealevel;temperature;humidity
19736;BME280;32064;49.310;8.646;2023-03-31T00:01:34;99871.03;;;14.71;76.71
19736;BME280;32064;49.310;8.646;2023-03-31T00:04:00;99868.94;;;14.75;76.83
19736;BME280;32064;49.310;8.646;2023-03-31T00:06:34;99848.59;;;14.75;77.00
19736;BME280;32064;49.310;8.646;2023-03-31T00:09:07;99853.31;;;14.72;76.28
19736;BME280;32064;49.310;8.646;2023-03-31T00:11:33;99847.75;;;14.75;76.53
19736;BME280;32064;49.310;8.646;2023-03-31T00:13:58;99829.06;;;14.76;75.96
19736;BME280;32064;49.310;8.646;2023-03-31T00:16:24;99834.31;;;14.86;75.78
19736;BME280;32064;49.310;8.646;2023-03-31T00:18:49;99830.97;;;14.84;75.61
19736;BME280;32064;49.310;8.646;2023-03-31T00:21:20;99824.97;;;14.82;76.01
19736;BME280;32064;49.310;8.646;2023-03-31T00:23:52;99817.72;;;14.84;75.56
19736;BME280;32064;49.310;8.646;2023-03-31T00:26:17;99817.56;;;14.86;75.48
19736;BME280;32064;49.310;8.646;2023-03-31T00:28:42;99813.63;;;14.90;75.25
19736;BME280;32064;49.310;8.646;2023-03-31T00:31:08;99808.19;;;14.91;75.49
19736;BME280;32064;49.310;8.646;2023-03-31T00:33:33;99804.88;;;14.89;74.88
19736;BME280;32064;49.310;8.646;2023-03-31T00:35:59;99802.56;;;14.94;75.58
19736;BME280;32064;49.310;8.646;2023-03-31T00:38:27;99800.78;;;14.95;75.79
19736;BME280;32064;49.310;8.646;2023-03-31T00:40:55;99793.66;;;14.95;75.90
19736;BME280;32064;49.310;8.646;2023-03-31T00:48:28;99806.09;;;14.95;76.06
19736;BME280;32064;49.310;8.646;2023-03-31T00:50:56;99799.41;;;14.91;75.53
19736;BME280;32064;49.310;8.646;2023-03-31T00:53:25;99794.41;;;14.88;75.01
19736;BME280;32064;49.310;8.646;2023-03-31T00:55:58;99771.69;;;14.85;75.17
19736;BME280;32064;49.310;8.646;2023-03-31T00:58:25;99770.88;;;14.85;75.01
19736;BME280;32064;49.310;8.646;2023-03-31T01:00:56;99760.81;;;14.88;74.17
19736;BME280;32064;49.310;8.646;2023-03-31T01:03:22;99759.16;;;14.87;74.59
19736;BME280;32064;49.310;8.646;2023-03-31T01:06:08;99754.84;;;14.86;74.67
19736;BME280;32064;49.310;8.646;2023-03-31T01:08:37;99756.03;;;14.92;74.88
19736;BME280;32064;49.310;8.646;2023-03-31T01:11:06;99749.91;;;14.91;74.85
19736;BME280;32064;49.310;8.646;2023-03-31T01:13:36;99749.06;;;14.91;74.63
19736;BME280;32064;49.310;8.646;2023-03-31T01:16:02;99741.75;;;14.85;74.34
19736;BME280;32064;49.310;8.646;2023-03-31T01:18:29;99735.16;;;14.89;74.90
19736;BME280;32064;49.310;8.646;2023-03-31T01:21:23;99735.00;;;14.90;75.02
19736;BME280;32064;49.310;8.646;2023-03-31T01:29:21;99767.09;;;14.87;75.64
19736;BME280;32064;49.310;8.646;2023-03-31T01:45:46;99712.75;;;14.65;74.83
19736;BME280;32064;49.310;8.646;2023-03-31T01:48:32;99701.34;;;14.65;75.03
19736;BME280;32064;49.310;8.646;2023-03-31T01:53:55;99694.66;;;14.60;74.64
19736;BME280;32064;49.310;8.646;2023-03-31T01:56:34;99688.63;;;14.68;74.76
19736;BME280;32064;49.310;8.646;2023-03-31T01:59:14;99677.34;;;14.66;74.80
19736;BME280;32064;49.310;8.646;2023-03-31T02:01:56;99678.22;;;14.67;74.76
19736;BME280;32064;49.310;8.646;2023-03-31T02:04:48;99685.97;;;14.68;74.85
19736;BME280;32064;49.310;8.646;2023-03-31T02:07:18;99679.56;;;14.71;74.73
19736;BME280;32064;49.310;8.646;2023-03-31T02:09:49;99674.94;;;14.73;74.97
19736;BME280;32064;49.310;8.646;2023-03-31T02:12:19;99667.00;;;14.73;74.80
19736;BME280;32064;49.310;8.646;2023-03-31T02:14:48;99679.25;;;14.74;73.82
19736;BME280;32064;49.310;8.646;2023-03-31T02:17:18;99669.66;;;14.73;74.53
19736;BME280;32064;49.310;8.646;2023-03-31T02:19:49;99672.91;;;14.67;74.47
19736;BME280;32064;49.310;8.646;2023-03-31T02:22:17;99664.28;;;14.65;74.31
19736;BME280;32064;49.310;8.646;2023-03-31T02:24:45;99662.16;;;14.68;74.55
19736;BME280;32064;49.310;8.646;2023-03-31T02:27:20;99654.06;;;14.70;74.56
19736;BME280;32064;49.310;8.646;2023-03-31T02:29:47;99642.34;;;14.72;74.60
19736;BME280;32064;49.310;8.646;2023-03-31T02:32:37;99636.38;;;14.70;74.81
19736;BME280;32064;49.310;8.646;2023-03-31T02:35:03;99622.44;;;14.68;74.80
19736;BME280;32064;49.310;8.646;2023-03-31T02:37:29;99612.53;;;14.70;74.19
19736;BME280;32064;49.310;8.646;2023-03-31T02:39:57;99604.72;;;14.69;74.39
19736;BME280;32064;49.310;8.646;2023-03-31T02:42:24;99607.38;;;14.69;74.28
19736;BME280;32064;49.310;8.646;2023-03-31T02:44:50;99602.63;;;14.72;74.19
19736;BME280;32064;49.310;8.646;2023-03-31T02:47:17;99595.03;;;14.77;74.58
19736;BME280;32064;49.310;8.646;2023-03-31T02:49:49;99590.41;;;14.79;74.26
19736;BME280;32064;49.310;8.646;2023-03-31T02:52:44;99586.94;;;14.79;74.35
19736;BME280;32064;49.310;8.646;2023-03-31T02:58:04;99571.06;;;14.79;73.59
19736;BME280;32064;49.310;8.646;2023-03-31T03:06:52;99530.00;;;14.75;73.46
19736;BME280;32064;49.310;8.646;2023-03-31T03:12:47;99505.69;;;14.79;73.59
19736;BME280;32064;49.310;8.646;2023-03-31T03:15:25;99508.19;;;14.81;73.61
19736;BME280;32064;49.310;8.646;2023-03-31T03:17:54;99503.84;;;14.80;73.05
19736;BME280;32064;49.310;8.646;2023-03-31T03:20:21;99505.53;;;14.81;73.13
19736;BME280;32064;49.310;8.646;2023-03-31T03:22:47;99498.72;;;14.78;72.99
19736;BME280;32064;49.310;8.646;2023-03-31T03:25:14;99492.13;;;14.82;73.30
19736;BME280;32064;49.310;8.646;2023-03-31T03:27:45;99473.91;;;14.79;73.14
19736;BME280;32064;49.310;8.646;2023-03-31T03:30:12;99466.63;;;14.81;72.01
19736;BME280;32064;49.310;8.646;2023-03-31T03:32:38;99468.28;;;14.82;72.99
19736;BME280;32064;49.310;8.646;2023-03-31T03:35:05;99468.16;;;14.84;71.90
19736;BME280;32064;49.310;8.646;2023-03-31T03:37:31;99463.00;;;14.82;72.51
19736;BME280;32064;49.310;8.646;2023-03-31T03:39:56;99453.53;;;14.80;72.46
19736;BME280;32064;49.310;8.646;2023-03-31T03:42:22;99441.63;;;14.76;72.30
19736;BME280;32064;49.310;8.646;2023-03-31T03:44:48;99445.41;;;14.73;72.03
19736;BME280;32064;49.310;8.646;2023-03-31T03:47:13;99429.84;;;14.70;72.10
19736;BME280;32064;49.310;8.646;2023-03-31T03:49:39;99412.47;;;14.68;72.15
19736;BME280;32064;49.310;8.646;2023-03-31T03:52:05;99380.19;;;14.64;72.29
19736;BME280;32064;49.310;8.646;2023-03-31T03:54:31;99380.81;;;14.58;72.49
19736;BME280;32064;49.310;8.646;2023-03-31T03:56:57;99381.13;;;14.55;72.49
19736;BME280;32064;49.310;8.646;2023-03-31T03:59:22;99375.53;;;14.58;72.43
19736;BME280;32064;49.310;8.646;2023-03-31T04:01:48;99384.13;;;14.60;72.50
19736;BME280;32064;49.310;8.646;2023-03-31T04:04:14;99394.94;;;14.49;73.35
19736;BME280;32064;49.310;8.646;2023-03-31T04:06:39;99397.09;;;14.45;72.44
19736;BME280;32064;49.310;8.646;2023-03-31T04:09:05;99406.03;;;14.44;73.14
19736;BME280;32064;49.310;8.646;2023-03-31T04:11:31;99404.66;;;14.40;73.29
19736;BME280;32064;49.310;8.646;2023-03-31T04:13:56;99402.19;;;14.38;73.10
19736;BME280;32064;49.310;8.646;2023-03-31T04:16:22;99402.69;;;14.42;73.84
19736;BME280;32064;49.310;8.646;2023-03-31T04:18:53;99390.81;;;14.46;73.38
19736;BME280;32064;49.310;8.646;2023-03-31T04:21:21;99388.16;;;14.46;73.47
19736;BME280;32064;49.310;8.646;2023-03-31T04:23:50;99384.53;;;14.47;73.29
19736;BME280;32064;49.310;8.646;2023-03-31T04:26:24;99378.25;;;14.48;73.60
19736;BME280;32064;49.310;8.646;2023-03-31T04:28:56;99373.13;;;14.47;73.58
19736;BME280;32064;49.310;8.646;2023-03-31T04:31:24;99364.66;;;14.43;73.84
19736;BME280;32064;49.310;8.646;2023-03-31T04:33:54;99358.84;;;14.40;73.86
19736;BME280;32064;49.310;8.646;2023-03-31T04:36:20;99347.44;;;14.39;73.91
19736;BME280;32064;49.310;8.646;2023-03-31T04:38:47;99339.84;;;14.36;73.87
19736;BME280;32064;49.310;8.646;2023-03-31T04:41:15;99344.94;;;14.37;73.90
19736;BME280;32064;49.310;8.646;2023-03-31T04:43:41;99334.38;;;14.37;74.26
19736;BME280;32064;49.310;8.646;2023-03-31T04:46:07;99329.06;;;14.37;73.42
19736;BME280;32064;49.310;8.646;2023-03-31T04:48:33;99333.72;;;14.35;73.93
19736;BME280;32064;49.310;8.646;2023-03-31T04:50:58;99332.72;;;14.36;74.40
19736;BME280;32064;49.310;8.646;2023-03-31T04:53:23;99340.47;;;14.30;75.09
19736;BME280;32064;49.310;8.646;2023-03-31T04:55:50;99335.69;;;14.33;74.26
19736;BME280;32064;49.310;8.646;2023-03-31T04:58:16;99340.16;;;14.33;74.72
19736;BME280;32064;49.310;8.646;2023-03-31T05:00:42;99340.66;;;14.36;73.90
19736;BME280;32064;49.310;8.646;2023-03-31T05:03:07;99343.56;;;14.25;74.82
19736;BME280;32064;49.310;8.646;2023-03-31T05:05:34;99344.75;;;14.31;74.54
19736;BME280;32064;49.310;8.646;2023-03-31T05:08:00;99341.25;;;14.22;75.27
19736;BME280;32064;49.310;8.646;2023-03-31T05:10:26;99336.47;;;14.26;74.74
19736;BME280;32064;49.310;8.646;2023-03-31T05:12:51;99346.38;;;14.24;74.60
19736;BME280;32064;49.310;8.646;2023-03-31T05:15:16;99348.19;;;14.23;74.66
19736;BME280;32064;49.310;8.646;2023-03-31T05:17:42;99357.06;;;14.14;75.14
19736;BME280;32064;49.310;8.646;2023-03-31T05:20:08;99362.91;;;14.26;74.81
19736;BME280;32064;49.310;8.646;2023-03-31T05:22:36;99357.13;;;14.22;75.33
19736;BME280;32064;49.310;8.646;2023-03-31T05:25:03;99342.50;;;14.10;74.85
19736;BME280;32064;49.310;8.646;2023-03-31T05:27:29;99337.38;;;14.08;75.73
19736;BME280;32064;49.310;8.646;2023-03-31T05:29:55;99334.47;;;13.93;77.06
19736;BME280;32064;49.310;8.646;2023-03-31T05:32:20;99322.47;;;13.81;77.52
19736;BME280;32064;49.310;8.646;2023-03-31T05:34:46;99310.75;;;13.84;77.73
19736;BME280;32064;49.310;8.646;2023-03-31T05:37:11;99296.94;;;13.90;77.21
19736;BME280;32064;49.310;8.646;2023-03-31T05:39:37;99295.44;;;13.87;76.88
19736;BME280;32064;49.310;8.646;2023-03-31T05:42:02;99298.84;;;13.80;77.30
19736;BME280;32064;49.310;8.646;2023-03-31T05:44:30;99281.63;;;13.76;77.79
19736;BME280;32064;49.310;8.646;2023-03-31T05:46:55;99271.41;;;13.81;77.47
19736;BME280;32064;49.310;8.646;2023-03-31T05:49:21;99275.94;;;13.88;77.38
19736;BME280;32064;49.310;8.646;2023-03-31T05:51:46;99265.50;;;13.87;77.99
19736;BME280;32064;49.310;8.646;2023-03-31T05:54:12;99266.41;;;13.69;78.57
19736;BME280;32064;49.310;8.646;2023-03-31T05:56:38;99258.47;;;13.69;79.05
19736;BME280;32064;49.310;8.646;2023-03-31T05:59:03;99250.41;;;13.71;78.78
19736;BME280;32064;49.310;8.646;2023-03-31T06:01:29;99244.13;;;13.72;79.17
19736;BME280;32064;49.310;8.646;2023-03-31T06:03:55;99233.84;;;13.69;79.44
19736;BME280;32064;49.310;8.646;2023-03-31T06:06:21;99230.06;;;13.72;79.10
19736;BME280;32064;49.310;8.646;2023-03-31T06:08:47;99229.41;;;13.69;80.06
19736;BME280;32064;49.310;8.646;2023-03-31T06:11:19;99221.13;;;13.64;80.57
19736;BME280;32064;49.310;8.646;2023-03-31T06:13:46;99207.06;;;13.64;80.55
19736;BME280;32064;49.310;8.646;2023-03-31T06:16:13;99205.47;;;13.71;79.79
19736;BME280;32064;49.310;8.646;2023-03-31T06:18:39;99203.09;;;13.60;80.10
19736;BME280;32064;49.310;8.646;2023-03-31T06:21:05;99209.06;;;13.62;79.98
19736;BME280;32064;49.310;8.646;2023-03-31T06:23:31;99218.00;;;13.69;80.22
19736;BME280;32064;49.310;8.646;2023-03-31T06:26:02;99206.75;;;13.67;80.95
19736;BME280;32064;49.310;8.646;2023-03-31T06:28:28;99194.22;;;13.69;80.71
19736;BME280;32064;49.310;8.646;2023-03-31T06:31:04;99191.34;;;13.54;81.82
19736;BME280;32064;49.310;8.646;2023-03-31T06:33:31;99165.78;;;13.63;80.67
19736;BME280;32064;49.310;8.646;2023-03-31T06:35:57;99158.03;;;13.69;81.82
19736;BME280;32064;49.310;8.646;2023-03-31T06:38:24;99128.78;;;13.63;81.96
19736;BME280;32064;49.310;8.646;2023-03-31T06:40:49;99109.91;;;13.58;81.95
19736;BME280;32064;49.310;8.646;2023-03-31T06:43:15;99108.31;;;13.65;82.12
19736;BME280;32064;49.310;8.646;2023-03-31T06:45:40;99152.59;;;13.71;81.62
19736;BME280;32064;49.310;8.646;2023-03-31T06:48:05;99154.56;;;13.69;82.11
19736;BME280;32064;49.310;8.646;2023-03-31T06:50:31;99160.34;;;13.64;83.15
19736;BME280;32064;49.310;8.646;2023-03-31T06:52:56;99169.44;;;13.70;82.32
19736;BME280;32064;49.310;8.646;2023-03-31T06:55:23;99158.00;;;13.61;83.50
19736;BME280;32064;49.310;8.646;2023-03-31T06:57:48;99146.81;;;13.67;83.11
19736;BME280;32064;49.310;8.646;2023-03-31T07:00:14;99147.34;;;13.79;82.85
19736;BME280;32064;49.310;8.646;2023-03-31T07:02:39;99164.19;;;13.78;83.20
19736;BME280;32064;49.310;8.646;2023-03-31T07:05:05;99168.50;;;13.79;83.19
19736;BME280;32064;49.310;8.646;2023-03-31T07:07:32;99165.41;;;13.92;82.50
19736;BME280;32064;49.310;8.646;2023-03-31T07:09:57;99164.94;;;13.97;82.54
19736;BME280;32064;49.310;8.646;2023-03-31T07:12:23;99157.81;;;13.97;83.27
19736;BME280;32064;49.310;8.646;2023-03-31T07:14:48;99136.69;;;14.05;82.31
19736;BME280;32064;49.310;8.646;2023-03-31T07:17:14;99149.91;;;14.05;83.22
19736;BME280;32064;49.310;8.646;2023-03-31T07:19:39;99150.91;;;14.12;82.43
19736;BME280;32064;49.310;8.646;2023-03-31T07:22:07;99156.88;;;14.14;83.33
19736;BME280;32064;49.310;8.646;2023-03-31T07:24:32;99147.47;;;14.28;82.63
19736;BME280;32064;49.310;8.646;2023-03-31T07:26:58;99143.84;;;14.37;82.54
19736;BME280;32064;49.310;8.646;2023-03-31T07:29:23;99145.69;;;14.45;82.28
19736;BME280;32064;49.310;8.646;2023-03-31T07:31:49;99142.09;;;14.54;82.39
19736;BME280;32064;49.310;8.646;2023-03-31T07:34:15;99152.03;;;14.52;82.79
19736;BME280;32064;49.310;8.646;2023-03-31T07:36:40;99156.81;;;14.65;82.38
19736;BME280;32064;49.310;8.646;2023-03-31T07:39:06;99161.78;;;14.76;82.16
19736;BME280;32064;49.310;8.646;2023-03-31T07:41:31;99168.06;;;15.00;81.91
19736;BME280;32064;49.310;8.646;2023-03-31T07:43:56;99159.03;;;15.50;80.61
19736;BME280;32064;49.310;8.646;2023-03-31T07:46:24;99164.88;;;15.37;80.43
19736;BME280;32064;49.310;8.646;2023-03-31T07:48:51;99147.84;;;15.32;80.50
19736;BME280;32064;49.310;8.646;2023-03-31T07:51:19;99145.34;;;15.22;81.71
19736;BME280;32064;49.310;8.646;2023-03-31T07:53:46;99150.63;;;15.30;81.67
19736;BME280;32064;49.310;8.646;2023-03-31T07:56:13;99169.88;;;15.24;80.84
19736;BME280;32064;49.310;8.646;2023-03-31T07:58:41;99166.56;;;15.05;82.10
19736;BME280;32064;49.310;8.646;2023-03-31T08:01:07;99179.84;;;14.81;82.47
19736;BME280;32064;49.310;8.646;2023-03-31T08:03:32;99176.19;;;14.82;82.55
19736;BME280;32064;49.310;8.646;2023-03-31T08:05:59;99160.13;;;14.92;82.28
19736;BME280;32064;49.310;8.646;2023-03-31T08:08:25;99164.25;;;15.11;81.59
19736;BME280;32064;49.310;8.646;2023-03-31T08:10:51;99157.75;;;15.38;81.35
19736;BME280;32064;49.310;8.646;2023-03-31T08:13:17;99160.47;;;15.77;79.38
19736;BME280;32064;49.310;8.646;2023-03-31T08:15:43;99151.03;;;15.75;80.96
19736;BME280;32064;49.310;8.646;2023-03-31T08:18:08;99158.31;;;15.64;81.45
19736;BME280;32064;49.310;8.646;2023-03-31T08:20:33;99145.31;;;15.94;80.67
19736;BME280;32064;49.310;8.646;2023-03-31T08:22:59;99147.81;;;17.11;76.03
19736;BME280;32064;49.310;8.646;2023-03-31T08:25:24;99139.84;;;17.11;75.93
19736;BME280;32064;49.310;8.646;2023-03-31T08:27:50;99144.72;;;17.22;76.13
19736;BME280;32064;49.310;8.646;2023-03-31T08:30:16;99132.91;;;19.34;68.81
19736;BME280;32064;49.310;8.646;2023-03-31T08:32:42;99135.84;;;18.90;70.99
19736;BME280;32064;49.310;8.646;2023-03-31T08:35:08;99127.34;;;18.36;72.59
19736;BME280;32064;49.310;8.646;2023-03-31T08:37:34;99117.78;;;18.21;71.82
19736;BME280;32064;49.310;8.646;2023-03-31T08:40:00;99119.88;;;18.47;71.33
19736;BME280;32064;49.310;8.646;2023-03-31T08:42:42;99115.31;;;20.82;64.12
19736;BME280;32064;49.310;8.646;2023-03-31T08:47:46;99115.78;;;24.75;54.62
19736;BME280;32064;49.310;8.646;2023-03-31T08:50:18;99125.72;;;24.63;55.98
19736;BME280;32064;49.310;8.646;2023-03-31T08:53:03;99117.47;;;25.23;49.73
19736;BME280;32064;49.310;8.646;2023-03-31T08:55:36;99138.13;;;23.05;56.95
19736;BME280;32064;49.310;8.646;2023-03-31T08:58:10;99119.69;;;22.27;58.61
19736;BME280;32064;49.310;8.646;2023-03-31T09:01:03;99112.44;;;21.82;57.71
19736;BME280;32064;49.310;8.646;2023-03-31T09:06:16;99109.59;;;21.77;58.37
19736;BME280;32064;49.310;8.646;2023-03-31T09:08:46;99112.19;;;21.97;58.34
19736;BME280;32064;49.310;8.646;2023-03-31T09:11:27;99104.00;;;20.94;56.79
19736;BME280;32064;49.310;8.646;2023-03-31T09:16:45;99114.47;;;19.39;61.87
19736;BME280;32064;49.310;8.646;2023-03-31T09:19:34;99103.22;;;18.88;61.78
19736;BME280;32064;49.310;8.646;2023-03-31T09:22:02;99095.69;;;18.48;63.51
19736;BME280;32064;49.310;8.646;2023-03-31T09:24:30;99091.84;;;18.29;63.41
19736;BME280;32064;49.310;8.646;2023-03-31T09:27:01;99093.03;;;18.05;62.34
19736;BME280;32064;49.310;8.646;2023-03-31T09:29:50;99089.88;;;18.16;63.61
19736;BME280;32064;49.310;8.646;2023-03-31T09:32:22;99080.69;;;18.19;62.01
19736;BME280;32064;49.310;8.646;2023-03-31T09:34:55;99073.91;;;18.16;62.24
19736;BME280;32064;49.310;8.646;2023-03-31T09:37:22;99074.66;;;18.10;63.00
19736;BME280;32064;49.310;8.646;2023-03-31T09:39:49;99056.22;;;18.09;61.57
19736;BME280;32064;49.310;8.646;2023-03-31T09:42:14;99056.94;;;18.17;60.96
19736;BME280;32064;49.310;8.646;2023-03-31T09:44:43;99063.31;;;18.23;61.73
19736;BME280;32064;49.310;8.646;2023-03-31T09:47:21;99057.88;;;18.10;62.11
19736;BME280;32064;49.310;8.646;2023-03-31T09:49:49;99052.25;;;17.83;62.54
19736;BME280;32064;49.310;8.646;2023-03-31T09:52:31;99052.34;;;17.75;61.94
19736;BME280;32064;49.310;8.646;2023-03-31T09:54:59;99050.31;;;17.77;61.70
19736;BME280;32064;49.310;8.646;2023-03-31T09:57:28;99044.47;;;17.82;62.13
19736;BME280;32064;49.310;8.646;2023-03-31T10:00:02;99032.25;;;17.87;60.59
19736;BME280;32064;49.310;8.646;2023-03-31T10:02:34;99035.09;;;18.07;61.50
19736;BME280;32064;49.310;8.646;2023-03-31T10:05:02;99038.97;;;18.26;60.24
19736;BME280;32064;49.310;8.646;2023-03-31T10:07:27;99044.31;;;18.26;60.24
19736;BME280;32064;49.310;8.646;2023-03-31T10:09:54;99034.59;;;18.18;61.04
19736;BME280;32064;49.310;8.646;2023-03-31T10:12:21;99048.84;;;17.89;59.59
19736;BME280;32064;49.310;8.646;2023-03-31T10:14:51;99058.66;;;17.74;61.11
19736;BME280;32064;49.310;8.646;2023-03-31T10:17:21;99044.38;;;17.24;62.24
19736;BME280;32064;49.310;8.646;2023-03-31T10:19:48;99040.97;;;17.30;61.87
19736;BME280;32064;49.310;8.646;2023-03-31T10:22:26;99047.19;;;17.22;62.06
19736;BME280;32064;49.310;8.646;2023-03-31T10:24:52;99047.63;;;17.26;63.14
19736;BME280;32064;49.310;8.646;2023-03-31T10:27:31;99029.03;;;17.26;64.05
19736;BME280;32064;49.310;8.646;2023-03-31T10:29:59;99027.66;;;17.45;64.09
19736;BME280;32064;49.310;8.646;2023-03-31T10:32:26;99027.19;;;17.78;64.07
19736;BME280;32064;49.310;8.646;2023-03-31T10:34:54;99012.94;;;18.50;63.04
19736;BME280;32064;49.310;8.646;2023-03-31T10:37:22;99009.03;;;18.46;62.85
19736;BME280;32064;49.310;8.646;2023-03-31T10:40:00;99005.97;;;18.21;61.83
19736;BME280;32064;49.310;8.646;2023-03-31T10:42:27;99033.88;;;17.88;62.29
19736;BME280;32064;49.310;8.646;2023-03-31T10:45:23;99090.28;;;17.33;65.61
19736;BME280;32064;49.310;8.646;2023-03-31T10:47:53;99109.94;;;16.79;66.53
19736;BME280;32064;49.310;8.646;2023-03-31T10:50:18;99110.97;;;16.47;68.29
19736;BME280;32064;49.310;8.646;2023-03-31T10:52:47;99070.56;;;16.13;68.52
19736;BME280;32064;49.310;8.646;2023-03-31T10:55:20;99082.13;;;15.98;67.93
19736;BME280;32064;49.310;8.646;2023-03-31T10:57:55;99081.75;;;15.78;69.01
19736;BME280;32064;49.310;8.646;2023-03-31T11:06:21;99050.47;;;15.57;70.01
19736;BME280;32064;49.310;8.646;2023-03-31T11:12:17;99053.84;;;15.82;68.65
19736;BME280;32064;49.310;8.646;2023-03-31T11:14:59;99057.09;;;16.61;67.78
19736;BME280;32064;49.310;8.646;2023-03-31T11:22:45;99062.69;;;18.92;64.00
19736;BME280;32064;49.310;8.646;2023-03-31T11:25:24;99062.59;;;19.48;63.21
19736;BME280;32064;49.310;8.646;2023-03-31T11:30:39;99057.66;;;20.00;60.40
19736;BME280;32064;49.310;8.646;2023-03-31T11:36:09;99053.81;;;20.42;59.62
19736;BME280;32064;49.310;8.646;2023-03-31T11:39:08;99052.31;;;20.07;57.86
19736;BME280;32064;49.310;8.646;2023-03-31T11:42:36;99058.91;;;20.04;59.82
19736;BME280;32064;49.310;8.646;2023-03-31T11:44:45;99065.41;;;19.40;60.01
19736;BME280;32064;49.310;8.646;2023-03-31T11:47:35;99065.09;;;19.22;58.77
19736;BME280;32064;49.310;8.646;2023-03-31T11:50:11;99074.97;;;18.93;58.23
19736;BME280;32064;49.310;8.646;2023-03-31T11:52:47;99056.94;;;18.67;58.38
19736;BME280;32064;49.310;8.646;2023-03-31T11:55:19;99062.22;;;18.60;57.26
19736;BME280;32064;49.310;8.646;2023-03-31T12:00:28;99060.63;;;18.66;58.15
19736;BME280;32064;49.310;8.646;2023-03-31T12:05:37;99035.91;;;19.07;55.78
19736;BME280;32064;49.310;8.646;2023-03-31T12:08:11;99034.44;;;19.04;57.38
19736;BME280;32064;49.310;8.646;2023-03-31T12:10:50;99036.00;;;18.64;56.60
19736;BME280;32064;49.310;8.646;2023-03-31T12:13:36;99021.59;;;18.30;57.02
19736;BME280;32064;49.310;8.646;2023-03-31T12:16:10;99039.66;;;18.13;56.92
19736;BME280;32064;49.310;8.646;2023-03-31T12:18:58;99020.59;;;17.73;57.70
19736;BME280;32064;49.310;8.646;2023-03-31T12:21:28;99025.75;;;17.75;58.01
19736;BME280;32064;49.310;8.646;2023-03-31T12:23:53;99025.09;;;17.73;58.36
19736;BME280;32064;49.310;8.646;2023-03-31T12:31:56;99020.78;;;17.36;57.07
19736;BME280;32064;49.310;8.646;2023-03-31T12:34:24;99012.00;;;17.20;58.97
19736;BME280;32064;49.310;8.646;2023-03-31T12:37:04;99011.72;;;17.15;59.26
19736;BME280;32064;49.310;8.646;2023-03-31T12:40:26;99004.28;;;16.81;60.60
19736;BME280;32064;49.310;8.646;2023-03-31T12:43:14;99002.84;;;16.93;61.51
19736;BME280;32064;49.310;8.646;2023-03-31T12:45:53;98991.03;;;16.96;60.73
19736;BME280;32064;49.310;8.646;2023-03-31T12:48:41;98991.22;;;16.94;61.25
19736;BME280;32064;49.310;8.646;2023-03-31T12:51:23;98983.69;;;16.98;62.11
19736;BME280;32064;49.310;8.646;2023-03-31T12:57:11;99000.47;;;17.13;61.11
19736;BME280;32064;49.310;8.646;2023-03-31T12:59:41;98991.31;;;17.16;61.58
19736;BME280;32064;49.310;8.646;2023-03-31T13:04:42;99007.53;;;16.91;61.56
19736;BME280;32064;49.310;8.646;2023-03-31T13:10:22;99019.34;;;16.51;62.95
19736;BME280;32064;49.310;8.646;2023-03-31T13:13:00;99018.13;;;16.38;64.73
19736;BME280;32064;49.310;8.646;2023-03-31T13:15:27;99010.34;;;16.37;64.18
19736;BME280;32064;49.310;8.646;2023-03-31T13:18:05;98995.81;;;16.48;66.94
19736;BME280;32064;49.310;8.646;2023-03-31T13:20:38;99005.66;;;17.06;66.23
19736;BME280;32064;49.310;8.646;2023-03-31T13:25:42;99000.34;;;17.72;64.61
19736;BME280;32064;49.310;8.646;2023-03-31T13:33:31;98995.13;;;17.64;65.19
19736;BME280;32064;49.310;8.646;2023-03-31T13:36:18;98994.81;;;17.53;64.66
19736;BME280;32064;49.310;8.646;2023-03-31T13:39:12;98993.13;;;17.30;64.05
19736;BME280;32064;49.310;8.646;2023-03-31T13:42:13;98973.41;;;17.61;64.68
19736;BME280;32064;49.310;8.646;2023-03-31T13:50:28;98969.03;;;17.89;64.15
19736;BME280;32064;49.310;8.646;2023-03-31T14:01:08;98969.91;;;18.18;65.07
19736;BME280;32064;49.310;8.646;2023-03-31T14:03:43;98958.88;;;18.00;63.73
19736;BME280;32064;49.310;8.646;2023-03-31T14:06:37;98955.91;;;17.88;64.21
19736;BME280;32064;49.310;8.646;2023-03-31T14:09:09;98937.53;;;17.93;63.94
19736;BME280;32064;49.310;8.646;2023-03-31T14:11:36;98927.66;;;17.87;63.14
19736;BME280;32064;49.310;8.646;2023-03-31T14:16:32;98907.69;;;17.98;64.05
19736;BME280;32064;49.310;8.646;2023-03-31T14:19:27;98898.13;;;18.03;63.57
19736;BME280;32064;49.310;8.646;2023-03-31T14:24:37;98906.94;;;18.38;63.49
19736;BME280;32064;49.310;8.646;2023-03-31T14:29:54;98916.53;;;18.33;61.46
19736;BME280;32064;49.310;8.646;2023-03-31T14:32:45;98921.16;;;18.17;62.85
19736;BME280;32064;49.310;8.646;2023-03-31T14:35:29;98930.19;;;17.95;63.03
19736;BME280;32064;49.310;8.646;2023-03-31T14:37:58;98928.47;;;17.87;61.86
19736;BME280;32064;49.310;8.646;2023-03-31T14:40:26;98927.13;;;17.77;62.47
19736;BME280;32064;49.310;8.646;2023-03-31T14:42:51;98937.19;;;17.60;63.58
19736;BME280;32064;49.310;8.646;2023-03-31T14:45:21;98952.50;;;17.58;62.85
19736;BME280;32064;49.310;8.646;2023-03-31T14:47:57;98931.41;;;17.56;64.01
19736;BME280;32064;49.310;8.646;2023-03-31T14:50:29;98914.50;;;17.42;62.81
19736;BME280;32064;49.310;8.646;2023-03-31T14:52:55;98915.97;;;17.45;62.43
19736;BME280;32064;49.310;8.646;2023-03-31T14:55:23;98903.22;;;17.40;64.05
19736;BME280;32064;49.310;8.646;2023-03-31T14:57:50;98911.59;;;17.37;62.99
19736;BME280;32064;49.310;8.646;2023-03-31T15:00:30;98905.50;;;17.22;65.51
19736;BME280;32064;49.310;8.646;2023-03-31T15:02:57;98914.34;;;17.29;63.45
19736;BME280;32064;49.310;8.646;2023-03-31T15:05:32;98914.28;;;17.22;64.53
19736;BME280;32064;49.310;8.646;2023-03-31T15:08:01;98914.56;;;17.27;64.51
19736;BME280;32064;49.310;8.646;2023-03-31T15:10:39;98908.97;;;17.22;66.39
19736;BME280;32064;49.310;8.646;2023-03-31T15:13:15;98918.03;;;17.28;65.55
19736;BME280;32064;49.310;8.646;2023-03-31T15:15:42;98908.53;;;17.19;64.76